Time;durP1;ratioP1;P1;durP2;ratioP2;P2;SDS_P1;SDS_P2;PMS_P1;PMS_P2;Temp;Humidity;BMP_temperature;BMP_pressure;BME280_temperature;BME280_humidity;BME280_pressure;Samples;Min_cycle;Max_cycle;Signal;HPM_P1;HPM_P2
2022/08/19 00:01:57;;;;;;;1.05;0.95;;;24.10;65.60;;;;;;5031268;28;43969;-65
2022/08/19 00:04:29;;;;;;;0.95;0.90;;;24.10;65.60;;;;;;5040902;28;43414;-64
2022/08/19 00:06:57;;;;;;;0.95;0.95;;;24.10;65.70;;;;;;5033727;28;43566;-64
2022/08/19 00:09:25;;;;;;;0.90;0.90;;;24.10;65.60;;;;;;5042392;28;43691;-64
2022/08/19 00:11:55;;;;;;;1.15;1.05;;;24.10;65.60;;;;;;5034395;28;43801;-65
2022/08/19 00:14:24;;;;;;;0.80;0.80;;;24.10;65.60;;;;;;5040544;28;43409;-65
2022/08/19 00:16:53;;;;;;;1.00;0.90;;;24.00;65.50;;;;;;5035473;28;43523;-64
2022/08/19 00:19:23;;;;;;;1.90;1.17;;;24.00;65.60;;;;;;5043595;28;45044;-64
2022/08/19 00:21:51;;;;;;;1.05;0.93;;;24.00;65.60;;;;;;5032142;28;44214;-64
2022/08/19 00:24:19;;;;;;;0.80;0.80;;;24.00;65.60;;;;;;5033211;28;43426;-65
2022/08/19 00:26:47;;;;;;;1.17;1.10;;;24.00;65.60;;;;;;5038970;28;43476;-65
2022/08/19 00:29:18;;;;;;;0.85;0.85;;;24.00;65.60;;;;;;5032006;28;44915;-64
2022/08/19 00:31:45;;;;;;;;;;;24.00;65.60;;;;;;5041708;28;43432;-66
2022/08/19 00:34:14;;;;;;;1.15;1.00;;;23.90;65.60;;;;;;5039654;28;43498;-64
2022/08/19 00:36:42;;;;;;;0.82;0.82;;;23.90;65.60;;;;;;5040719;28;43514;-64
2022/08/19 00:39:11;;;;;;;1.50;1.00;;;23.90;66.30;;;;;;5031539;28;44660;-65
2022/08/19 00:41:40;;;;;;;0.82;0.82;;;23.90;66.30;;;;;;5038705;28;43891;-65
2022/08/19 00:44:27;;;;;;;0.98;0.98;;;23.90;65.60;;;;;;5039885;28;43497;-64
2022/08/19 00:46:58;;;;;;;1.08;1.08;;;23.90;65.60;;;;;;5042575;28;43446;-64
2022/08/19 00:49:32;;;;;;;1.10;1.00;;;23.90;65.60;;;;;;5030011;28;46066;-64
2022/08/19 00:52:12;;;;;;;1.23;1.00;;;23.90;65.60;;;;;;5035204;28;43601;-64
2022/08/19 00:54:41;;;;;;;1.05;0.90;;;23.90;65.60;;;;;;5032453;28;43417;-65
2022/08/19 00:57:12;;;;;;;0.93;0.93;;;23.90;65.60;;;;;;5042359;28;43464;-64
2022/08/19 00:59:43;;;;;;;0.90;0.90;;;23.90;65.50;;;;;;5029383;28;43814;-64
2022/08/19 01:02:30;;;;;;;1.02;0.85;;;23.90;65.50;;;;;;5034397;28;44087;-65
2022/08/19 01:04:57;;;;;;;0.80;0.80;;;23.90;65.60;;;;;;5040335;28;43427;-64
2022/08/19 01:07:25;;;;;;;1.67;0.90;;;23.90;65.60;;;;;;5029505;28;43423;-64
2022/08/19 01:09:53;;;;;;;1.27;1.00;;;23.80;65.50;;;;;;5041583;28;44105;-64
2022/08/19 01:12:21;;;;;;;0.80;0.80;;;23.80;65.50;;;;;;5041071;28;43974;-64
2022/08/19 01:14:49;;;;;;;1.00;1.00;;;23.80;65.50;;;;;;5041969;28;43472;-64
2022/08/19 01:17:18;;;;;;;0.90;0.90;;;23.80;65.50;;;;;;5027529;28;43493;-64
2022/08/19 01:19:47;;;;;;;1.30;0.88;;;23.80;65.50;;;;;;5029466;28;45005;-64
2022/08/19 01:22:22;;;;;;;0.80;0.80;;;23.80;65.60;;;;;;5038133;28;43668;-65
2022/08/19 01:24:58;;;;;;;0.90;0.90;;;23.80;65.50;;;;;;5041066;28;43991;-64
2022/08/19 01:27:25;;;;;;;1.15;1.05;;;23.80;65.50;;;;;;5036080;28;43486;-65
2022/08/19 01:29:56;;;;;;;1.10;1.10;;;23.80;65.50;;;;;;5036428;28;45106;-64
2022/08/19 01:32:24;;;;;;;1.80;1.08;;;23.80;65.50;;;;;;5040957;28;43530;-64
2022/08/19 01:35:01;;;;;;;1.00;1.00;;;23.70;65.50;;;;;;5041163;28;43386;-64
2022/08/19 01:37:30;;;;;;;0.93;0.93;;;23.80;65.50;;;;;;5028250;28;43499;-65
2022/08/19 01:39:57;;;;;;;1.00;1.00;;;23.80;65.60;;;;;;5035569;28;44077;-64
2022/08/19 01:42:25;;;;;;;0.68;0.68;;;23.70;65.50;;;;;;5040456;28;43405;-64
2022/08/19 01:44:57;;;;;;;0.88;0.88;;;23.70;65.50;;;;;;5026847;28;43409;-65
2022/08/19 01:47:24;;;;;;;0.90;0.90;;;23.70;65.50;;;;;;5028877;28;43523;-65
2022/08/19 01:49:52;;;;;;;0.93;0.88;;;23.70;65.50;;;;;;5038180;28;46005;-65
2022/08/19 01:52:19;;;;;;;1.20;1.10;;;23.70;65.50;;;;;;5036966;28;43901;-64
2022/08/19 01:54:47;;;;;;;1.35;1.25;;;23.70;65.50;;;;;;5028663;28;43492;-64
2022/08/19 01:57:15;;;;;;;1.33;1.23;;;23.70;65.50;;;;;;5031415;28;43484;-65
2022/08/19 01:59:44;;;;;;;1.10;1.00;;;23.70;65.50;;;;;;5039195;28;44694;-64
2022/08/19 02:02:11;;;;;;;0.90;0.90;;;23.70;65.50;;;;;;5028362;28;43707;-64
2022/08/19 02:04:39;;;;;;;1.00;0.90;;;23.60;65.40;;;;;;5038494;28;43408;-64
2022/08/19 02:07:07;;;;;;;0.88;0.88;;;23.60;65.50;;;;;;5031562;28;43478;-65
2022/08/19 02:09:35;;;;;;;0.85;0.85;;;23.60;65.50;;;;;;5039586;28;44060;-64
2022/08/19 02:12:04;;;;;;;1.25;0.90;;;23.60;65.50;;;;;;5031952;28;43503;-64
2022/08/19 02:14:35;;;;;;;0.90;0.90;;;23.60;65.50;;;;;;5038079;28;43387;-64
2022/08/19 02:17:03;;;;;;;0.93;0.93;;;23.60;65.40;;;;;;5034524;28;43462;-64
2022/08/19 02:19:32;;;;;;;1.10;1.00;;;23.60;65.50;;;;;;5040801;28;44652;-64
2022/08/19 02:22:00;;;;;;;0.70;0.70;;;23.60;65.40;;;;;;5029841;28;43487;-64
2022/08/19 02:24:27;;;;;;;0.93;0.93;;;23.60;65.40;;;;;;5029562;28;43985;-65
2022/08/19 02:26:55;;;;;;;0.80;0.80;;;23.60;65.40;;;;;;5039976;28;43431;-64
2022/08/19 02:29:23;;;;;;;1.23;0.90;;;23.60;65.40;;;;;;5040279;28;44710;-64
2022/08/19 02:31:51;;;;;;;1.15;0.93;;;23.60;65.40;;;;;;5032256;28;43680;-65
2022/08/19 02:34:18;;;;;;;1.00;1.00;;;23.60;65.40;;;;;;5029290;28;43459;-65
2022/08/19 02:36:46;;;;;;;1.00;1.00;;;23.60;65.50;;;;;;5038336;28;43502;-65
2022/08/19 02:39:18;;;;;;;0.85;0.82;;;23.50;65.40;;;;;;5029352;28;45071;-64
2022/08/19 02:41:45;;;;;;;0.82;0.82;;;23.50;65.40;;;;;;5036525;28;43471;-65
2022/08/19 02:44:13;;;;;;;0.80;0.80;;;23.50;65.40;;;;;;5030506;28;43394;-65
2022/08/19 02:46:57;;;;;;;0.98;0.88;;;23.50;65.40;;;;;;5032766;28;43389;-64
2022/08/19 02:49:25;;;;;;;1.00;1.00;;;23.50;65.40;;;;;;5028342;28;44972;-64
2022/08/19 02:51:52;;;;;;;0.98;0.98;;;23.50;65.40;;;;;;5025266;28;43720;-65
2022/08/19 02:54:20;;;;;;;1.05;1.00;;;23.50;65.40;;;;;;5038578;28;43987;-64
2022/08/19 02:56:48;;;;;;;0.75;0.75;;;23.50;65.40;;;;;;5040670;28;43639;-64
2022/08/19 02:59:16;;;;;;;0.70;0.70;;;23.50;65.40;;;;;;5030415;28;44028;-64
2022/08/19 03:01:47;;;;;;;;;;;23.50;65.50;;;;;;5038047;28;43469;-64
2022/08/19 03:04:15;;;;;;;1.00;0.90;;;23.50;65.50;;;;;;5038179;28;43467;-65
2022/08/19 03:06:44;;;;;;;0.82;0.82;;;23.50;65.50;;;;;;5029395;28;43623;-65
2022/08/19 03:09:13;;;;;;;0.90;0.90;;;23.40;65.50;;;;;;5039870;28;44037;-64
2022/08/19 03:11:41;;;;;;;1.10;1.00;;;23.40;65.90;;;;;;5032628;28;43952;-65
2022/08/19 03:14:09;;;;;;;1.17;0.85;;;23.40;65.50;;;;;;5042768;28;43502;-64
2022/08/19 03:16:47;;;;;;;0.80;0.80;;;23.40;65.40;;;;;;5031640;28;43428;-64
2022/08/19 03:19:17;;;;;;;0.90;0.90;;;23.40;65.40;;;;;;5034047;28;45049;-64
2022/08/19 03:21:45;;;;;;;0.80;0.80;;;23.40;65.40;;;;;;5037728;28;43690;-64
2022/08/19 03:24:15;;;;;;;1.48;0.80;;;23.40;65.50;;;;;;5044052;28;43531;-64
2022/08/19 03:26:48;;;;;;;1.10;1.00;;;23.40;65.50;;;;;;5043472;28;43460;-64
2022/08/19 03:29:17;;;;;;;1.33;1.08;;;23.40;65.40;;;;;;5044159;28;44992;-64
2022/08/19 03:32:02;;;;;;;;;;;23.40;65.40;;;;;;5033639;28;43685;-64
2022/08/19 03:34:33;;;;;;;1.20;1.20;;;23.40;65.50;;;;;;5031957;28;43386;-65
2022/08/19 03:37:11;;;;;;;1.10;1.00;;;23.30;65.50;;;;;;5032241;28;43541;-65
2022/08/19 03:39:40;;;;;;;0.90;0.90;;;23.30;65.50;;;;;;5037383;28;45111;-64
2022/08/19 03:42:08;;;;;;;1.15;1.00;;;23.30;65.50;;;;;;5043625;28;44094;-64
2022/08/19 03:44:56;;;;;;;0.90;0.90;;;23.30;65.50;;;;;;5041218;28;43436;-64
2022/08/19 03:47:23;;;;;;;1.02;1.02;;;23.30;65.50;;;;;;5033489;28;43498;-65
2022/08/19 03:49:51;;;;;;;2.05;1.00;;;23.30;65.50;;;;;;5041209;28;43807;-64
2022/08/19 03:52:19;;;;;;;1.00;1.00;;;23.30;65.50;;;;;;5029440;28;43383;-64
2022/08/19 03:54:46;;;;;;;1.30;0.80;;;23.30;65.50;;;;;;5029977;28;43539;-64
2022/08/19 03:57:14;;;;;;;1.10;1.00;;;23.30;65.50;;;;;;5032554;28;43515;-64
2022/08/19 03:59:41;;;;;;;0.90;0.90;;;23.30;65.40;;;;;;5040356;28;44711;-64
2022/08/19 04:02:11;;;;;;;1.15;1.10;;;23.30;65.40;;;;;;5044053;28;43800;-65
2022/08/19 04:04:42;;;;;;;1.17;1.17;;;23.30;65.50;;;;;;5040273;28;43417;-65
2022/08/19 04:07:15;;;;;;;0.75;0.75;;;23.20;65.40;;;;;;5034534;28;43989;-65
2022/08/19 04:09:43;;;;;;;0.80;0.80;;;23.30;65.40;;;;;;5041775;28;44615;-64
2022/08/19 04:12:11;;;;;;;1.00;1.00;;;23.20;65.40;;;;;;5032282;28;43992;-65
2022/08/19 04:14:39;;;;;;;1.08;0.90;;;23.30;65.50;;;;;;5038849;28;43458;-65
2022/08/19 04:17:06;;;;;;;1.02;1.02;;;23.20;65.40;;;;;;5036158;28;43466;-64
2022/08/19 04:19:35;;;;;;;0.82;0.82;;;23.20;65.50;;;;;;5041746;28;44072;-64
2022/08/19 04:22:04;;;;;;;0.88;0.88;;;23.20;65.40;;;;;;5030339;28;43929;-64
2022/08/19 04:24:33;;;;;;;1.15;0.70;;;23.20;65.40;;;;;;5030394;28;43474;-65
2022/08/19 04:27:02;;;;;;;0.82;0.82;;;23.20;65.40;;;;;;5038611;28;43565;-65
2022/08/19 04:29:30;;;;;;;1.15;1.05;;;23.20;65.50;;;;;;5042173;28;45274;-64
2022/08/19 04:31:59;;;;;;;0.95;0.73;;;23.20;65.50;;;;;;5032762;28;44142;-65
2022/08/19 04:34:37;;;;;;;0.90;0.90;;;23.20;65.50;;;;;;5036278;28;43451;-64
2022/08/19 04:37:27;;;;;;;0.80;0.80;;;23.20;65.40;;;;;;5039615;28;43644;-64
2022/08/19 04:42:49;;;;;;;0.88;0.80;;;23.20;65.40;;;;;;5035131;28;43884;-64
2022/08/19 04:45:17;;;;;;;0.75;0.75;;;23.20;65.50;;;;;;5038752;28;43425;-64
2022/08/19 04:47:44;;;;;;;0.80;0.80;;;23.10;65.40;;;;;;5040904;28;43486;-64
2022/08/19 04:50:26;;;;;;;1.85;0.73;;;23.10;65.40;;;;;;5035504;28;44766;-64
2022/08/19 04:52:55;;;;;;;0.73;0.70;;;23.10;65.40;;;;;;5042552;28;43478;-64
2022/08/19 04:55:25;;;;;;;1.02;0.88;;;23.10;65.40;;;;;;5040073;28;43534;-64
2022/08/19 04:57:54;;;;;;;0.68;0.68;;;23.10;65.40;;;;;;5032840;28;43484;-64
2022/08/19 05:00:22;;;;;;;0.70;0.70;;;23.10;65.40;;;;;;5028785;28;44692;-64
2022/08/19 05:02:49;;;;;;;0.70;0.70;;;23.10;65.50;;;;;;5037656;28;43514;-64
2022/08/19 05:05:17;;;;;;;0.80;0.80;;;23.00;65.40;;;;;;5040589;28;43426;-65
2022/08/19 05:07:45;;;;;;;0.82;0.70;;;23.10;65.50;;;;;;5026033;28;43509;-65
2022/08/19 05:10:12;;;;;;;0.73;0.73;;;23.10;66.10;;;;;;5030799;28;44070;-64
2022/08/19 05:12:40;;;;;;;0.60;0.60;;;23.10;65.40;;;;;;5040339;28;43961;-64
2022/08/19 05:15:08;;;;;;;0.55;0.55;;;23.10;65.50;;;;;;5040483;28;43506;-64
2022/08/19 05:17:36;;;;;;;0.70;0.70;;;23.10;65.40;;;;;;5026488;28;43594;-64
2022/08/19 05:22:55;;;;;;;0.80;0.80;;;23.00;65.40;;;;;;5039478;28;43483;-64
2022/08/19 05:25:24;;;;;;;0.60;0.60;;;23.00;65.40;;;;;;5041222;28;44070;-64
2022/08/19 05:27:51;;;;;;;0.60;0.60;;;23.00;65.30;;;;;;5041569;28;43430;-62
2022/08/19 05:30:19;;;;;;;0.63;0.63;;;23.00;65.40;;;;;;5036373;28;44804;-64
2022/08/19 05:33:11;;;;;;;0.52;0.52;;;23.00;65.40;;;;;;5037915;28;43764;-64
2022/08/19 05:35:40;;;;;;;0.60;0.60;;;23.00;65.40;;;;;;5031821;28;43450;-64
2022/08/19 05:38:08;;;;;;;0.65;0.60;;;23.00;65.40;;;;;;5032460;28;43459;-64
2022/08/19 05:40:37;;;;;;;0.50;0.50;;;23.00;65.40;;;;;;5035671;28;43815;-64
2022/08/19 05:43:07;;;;;;;0.70;0.70;;;23.00;65.50;;;;;;5037622;28;43505;-64
2022/08/19 05:45:39;;;;;;;0.70;0.70;;;22.90;65.40;;;;;;5033480;28;43358;-64
2022/08/19 05:48:07;;;;;;;0.70;0.70;;;23.00;65.40;;;;;;5031242;28;43531;-64
2022/08/19 05:50:35;;;;;;;0.98;0.60;;;23.00;65.40;;;;;;5035066;28;45012;-64
2022/08/19 05:53:03;;;;;;;0.93;0.60;;;23.00;65.50;;;;;;5036562;28;43883;-64
2022/08/19 05:55:31;;;;;;;1.20;0.70;;;23.00;65.40;;;;;;5027767;28;43497;-64
2022/08/19 05:58:01;;;;;;;0.68;0.68;;;23.00;65.50;;;;;;5036441;28;43449;-64
2022/08/19 06:00:30;;;;;;;0.82;0.82;;;23.00;65.50;;;;;;5038313;28;44042;-64
2022/08/19 06:03:02;;;;;;;0.55;0.55;;;23.00;65.50;;;;;;5030504;28;43459;-64
2022/08/19 06:05:39;;;;;;;;;;;23.00;65.50;;;;;;5031526;28;43450;-64
2022/08/19 06:08:18;;;;;;;0.65;0.65;;;23.00;65.50;;;;;;5036313;28;43551;-66
2022/08/19 06:10:46;;;;;;;1.75;0.80;;;22.90;65.50;;;;;;5035873;28;44154;-66
2022/08/19 06:13:13;;;;;;;0.98;0.80;;;22.90;65.60;;;;;;5038190;28;43495;-65
2022/08/19 06:15:43;;;;;;;1.02;0.70;;;22.90;65.60;;;;;;5035681;28;43378;-63
2022/08/19 06:18:11;;;;;;;0.73;0.73;;;22.90;65.60;;;;;;5035835;28;43523;-65
2022/08/19 06:20:39;;;;;;;0.63;0.63;;;22.90;65.60;;;;;;5035629;28;44042;-65
2022/08/19 06:23:22;;;;;;;1.00;0.90;;;22.90;65.60;;;;;;5029492;28;43706;-65
2022/08/19 06:25:50;;;;;;;0.88;0.70;;;22.90;65.60;;;;;;5034497;28;43462;-66
2022/08/19 06:28:18;;;;;;;0.77;0.77;;;22.90;65.60;;;;;;5037807;28;43439;-64
2022/08/19 06:30:46;;;;;;;0.82;0.82;;;22.90;65.60;;;;;;5033590;28;43804;-64
2022/08/19 06:33:13;;;;;;;0.77;0.77;;;22.90;65.70;;;;;;5046884;28;43610;-65
2022/08/19 06:35:41;;;;;;;0.90;0.75;;;22.90;65.60;;;;;;5038494;28;43441;-65
2022/08/19 06:38:09;;;;;;;0.90;0.90;;;22.90;65.60;;;;;;5041833;28;43618;-64
2022/08/19 06:40:37;;;;;;;0.80;0.77;;;22.90;65.60;;;;;;5032761;28;45267;-64
2022/08/19 06:43:05;;;;;;;1.20;0.70;;;22.90;65.60;;;;;;5032396;28;44031;-65
2022/08/19 06:45:38;;;;;;;1.17;1.05;;;22.90;65.70;;;;;;5036725;28;43630;-65
2022/08/19 06:48:06;;;;;;;0.90;0.90;;;22.90;65.60;;;;;;5036614;28;43637;-65
2022/08/19 06:50:34;;;;;;;0.80;0.80;;;22.90;65.70;;;;;;5028773;28;44032;-64
2022/08/19 06:53:05;;;;;;;0.90;0.90;;;22.90;65.60;;;;;;5038647;28;43391;-65
2022/08/19 06:55:33;;;;;;;1.13;1.02;;;22.90;65.70;;;;;;5040617;28;43490;-65
2022/08/19 06:58:04;;;;;;;1.33;1.00;;;22.90;65.70;;;;;;5039395;28;43523;-65
2022/08/19 07:00:32;;;;;;;0.80;0.80;;;22.90;65.70;;;;;;5031587;28;44073;-66
2022/08/19 07:03:00;;;;;;;0.98;0.98;;;22.90;65.70;;;;;;5038576;28;44720;-65
2022/08/19 07:05:39;;;;;;;0.88;0.88;;;22.90;66.30;;;;;;5040825;28;43501;-64
2022/08/19 07:08:12;;;;;;;0.98;0.98;;;22.90;65.70;;;;;;5035393;28;43576;-65
2022/08/19 07:10:44;;;;;;;1.10;1.00;;;23.00;65.80;;;;;;5036015;28;44034;-64
2022/08/19 07:13:12;;;;;;;2.42;0.98;;;22.90;65.70;;;;;;5041086;28;43514;-64
2022/08/19 07:15:39;;;;;;;0.88;0.88;;;22.90;65.80;;;;;;5038536;28;43646;-64
2022/08/19 07:18:07;;;;;;;0.82;0.82;;;23.00;65.70;;;;;;5028725;28;43541;-64
2022/08/19 07:20:39;;;;;;;;;;;22.90;65.80;;;;;;5038289;28;44776;-64
2022/08/19 07:23:08;;;;;;;0.88;0.85;;;22.90;65.80;;;;;;5039349;28;43679;-64
2022/08/19 07:25:42;;;;;;;0.95;0.95;;;22.90;65.80;;;;;;5043419;28;43441;-64
2022/08/19 07:28:10;;;;;;;0.88;0.88;;;23.00;65.80;;;;;;5034512;28;43687;-64
2022/08/19 07:30:51;;;;;;;1.00;1.00;;;23.00;65.70;;;;;;5037352;28;43997;-64
2022/08/19 07:33:19;;;;;;;0.80;0.80;;;23.00;65.80;;;;;;5043281;28;43389;-64
2022/08/19 07:35:47;;;;;;;1.05;1.05;;;23.00;65.70;;;;;;5035385;28;43442;-64
2022/08/19 07:38:15;;;;;;;1.02;1.00;;;22.90;65.60;;;;;;5033793;28;43632;-64
2022/08/19 07:40:45;;;;;;;0.90;0.90;;;22.90;65.70;;;;;;5033863;28;44143;-64
2022/08/19 07:43:14;;;;;;;1.10;1.10;;;23.00;65.70;;;;;;5037020;28;43685;-64
2022/08/19 07:45:44;;;;;;;;;;;22.90;65.60;;;;;;5044345;28;43403;-64
2022/08/19 07:48:12;;;;;;;1.10;1.00;;;23.00;65.70;;;;;;5033427;28;43610;-64
2022/08/19 07:50:39;;;;;;;1.83;1.00;;;23.00;65.70;;;;;;5033360;28;44141;-64
2022/08/19 07:53:07;;;;;;;1.02;1.00;;;22.90;65.60;;;;;;5037969;28;43986;-64
2022/08/19 07:55:34;;;;;;;1.08;1.08;;;23.00;65.70;;;;;;5029883;28;43424;-64
2022/08/19 07:58:14;;;;;;;1.15;1.15;;;22.90;65.60;;;;;;5037748;28;43431;-64
2022/08/19 08:00:42;;;;;;;1.67;1.08;;;23.00;65.70;;;;;;5042667;28;43807;-64
2022/08/19 08:03:11;;;;;;;1.30;1.17;;;23.00;65.60;;;;;;5035307;28;43715;-64
2022/08/19 08:11:19;;;;;;;1.10;1.10;;;23.00;65.80;;;;;;5032740;28;44058;-65
2022/08/19 08:13:49;;;;;;;1.40;1.23;;;23.00;66.40;;;;;;5042337;28;43780;-64
2022/08/19 08:16:35;;;;;;;1.27;1.27;;;23.00;65.80;;;;;;5030357;28;43537;-64
2022/08/19 08:19:06;;;;;;;1.00;1.00;;;23.00;65.80;;;;;;5042147;28;43565;-64
2022/08/19 08:21:56;;;;;;;1.73;1.08;;;23.00;65.70;;;;;;5029912;28;43853;-64
2022/08/19 08:24:25;;;;;;;1.40;1.30;;;23.00;65.70;;;;;;5029563;28;43820;-65
2022/08/19 08:26:56;;;;;;;1.00;1.00;;;23.00;66.30;;;;;;5041276;28;43391;-65
2022/08/19 08:29:28;;;;;;;1.25;1.15;;;23.10;65.70;;;;;;5041443;28;43558;-64
2022/08/19 08:32:03;;;;;;;1.75;1.25;;;23.00;65.60;;;;;;5040724;28;44733;-64
2022/08/19 08:34:40;;;;;;;1.50;1.40;;;23.10;65.70;;;;;;5030862;28;43685;-65
2022/08/19 08:37:08;;;;;;;1.60;1.50;;;23.10;65.80;;;;;;5039295;28;43510;-65
2022/08/19 08:39:35;;;;;;;2.08;1.50;;;23.10;65.70;;;;;;5041930;28;43467;-65
2022/08/19 08:42:42;;;;;;;1.60;1.50;;;23.10;65.60;;;;;;5030466;28;43890;-65
2022/08/19 08:45:16;;;;;;;1.50;1.40;;;23.10;65.70;;;;;;4975513;28;43740;-65
2022/08/19 08:47:49;;;;;;;1.45;1.35;;;23.10;65.60;;;;;;5032905;28;43411;-65
2022/08/19 08:50:29;;;;;;;1.80;1.40;;;23.10;65.70;;;;;;5036017;28;43664;-64
2022/08/19 08:52:58;;;;;;;1.60;1.50;;;23.10;65.60;;;;;;5042266;28;44738;-65
2022/08/19 08:55:28;;;;;;;1.40;1.30;;;23.10;65.60;;;;;;5038186;28;43445;-65
2022/08/19 08:58:13;;;;;;;1.65;1.45;;;23.10;65.80;;;;;;5024713;28;43400;-65
2022/08/19 09:00:46;;;;;;;1.55;1.45;;;23.20;65.60;;;;;;5030224;28;43782;-65
2022/08/19 09:03:23;;;;;;;2.00;1.50;;;23.20;65.70;;;;;;5036464;28;44688;-65
2022/08/19 09:05:57;;;;;;;1.70;1.60;;;23.20;65.70;;;;;;5041254;28;43420;-65
2022/08/19 09:08:48;;;;;;;1.83;1.73;;;23.20;65.70;;;;;;5031817;28;43425;-65
2022/08/19 09:11:57;;;;;;;1.70;1.60;;;23.20;65.80;;;;;;5038320;28;43505;-64
2022/08/19 09:14:45;;;;;;;1.52;1.20;;;23.20;65.80;;;;;;5041730;28;44053;-63
2022/08/19 09:17:23;;;;;;;1.45;1.45;;;23.20;65.80;;;;;;5027818;28;43912;-63
2022/08/19 09:19:54;;;;;;;1.52;1.42;;;23.20;65.80;;;;;;5035698;28;43450;-63
2022/08/19 09:22:22;;;;;;;1.50;1.40;;;23.20;65.80;;;;;;5038428;28;43469;-63
2022/08/19 09:24:54;;;;;;;1.70;1.60;;;23.20;65.80;;;;;;5040764;28;44976;-64
2022/08/19 09:27:26;;;;;;;2.08;1.42;;;23.20;65.80;;;;;;5041134;28;43416;-64
2022/08/19 09:30:24;;;;;;;1.75;1.65;;;23.20;65.70;;;;;;5035612;28;43426;-63
2022/08/19 09:32:53;;;;;;;1.90;1.80;;;23.30;65.90;;;;;;5040183;28;43545;-64
2022/08/19 09:35:23;;;;;;;2.00;1.80;;;23.30;65.90;;;;;;5036752;28;44023;-63
2022/08/19 09:37:51;;;;;;;1.80;1.70;;;23.30;66.00;;;;;;5028108;28;43442;-63
2022/08/19 09:40:28;;;;;;;1.67;1.58;;;23.30;65.90;;;;;;5036778;28;43429;-63
2022/08/19 09:42:57;;;;;;;;;;;23.30;65.80;;;;;;5039090;28;43447;-63
2022/08/19 09:45:24;;;;;;;1.80;1.70;;;23.30;65.70;;;;;;5031828;28;44035;-63
2022/08/19 09:47:53;;;;;;;1.80;1.70;;;23.30;65.80;;;;;;5034661;28;43550;-63
2022/08/19 09:50:23;;;;;;;1.90;1.80;;;23.40;65.90;;;;;;5037371;28;43362;-63
2022/08/19 09:52:52;;;;;;;2.17;2.03;;;23.40;65.90;;;;;;5037204;28;43436;-63
2022/08/19 09:55:24;;;;;;;1.90;1.80;;;23.40;65.60;;;;;;5026259;28;44666;-64
2022/08/19 09:58:02;;;;;;;2.03;1.92;;;23.40;65.70;;;;;;5036405;28;43997;-63
2022/08/19 10:00:31;;;;;;;2.03;1.90;;;23.40;65.80;;;;;;5038026;28;43462;-63
2022/08/19 10:02:58;;;;;;;1.90;1.80;;;23.40;65.80;;;;;;5036150;28;43498;-63
2022/08/19 10:08:17;;;;;;;1.73;1.63;;;23.50;65.90;;;;;;5034585;28;44127;-63
2022/08/19 10:10:47;;;;;;;1.98;1.88;;;23.50;65.90;;;;;;5040400;28;43505;-63
2022/08/19 10:13:23;;;;;;;2.15;2.00;;;23.50;65.80;;;;;;5036689;28;44443;-64
2022/08/19 10:15:52;;;;;;;2.10;1.98;;;23.50;65.80;;;;;;5036178;28;44047;-64
2022/08/19 10:18:22;;;;;;;;;;;23.50;66.00;;;;;;5039051;28;44211;-65
2022/08/19 10:20:53;;;;;;;2.08;1.90;;;23.50;66.00;;;;;;5033108;28;43460;-64
2022/08/19 10:23:21;;;;;;;2.13;2.03;;;23.50;66.10;;;;;;5040294;28;43490;-64
2022/08/19 10:25:49;;;;;;;2.25;2.00;;;23.50;66.00;;;;;;5045417;28;43780;-64
2022/08/19 10:28:17;;;;;;;2.20;2.10;;;23.50;66.00;;;;;;5046246;28;43475;-64
2022/08/19 10:30:47;;;;;;;2.33;2.13;;;23.50;65.90;;;;;;5046932;28;43375;-64
2022/08/19 10:33:15;;;;;;;2.35;2.20;;;23.60;66.00;;;;;;5044494;28;43515;-64
2022/08/19 10:36:14;;;;;;;2.50;2.30;;;23.60;66.00;;;;;;5044459;28;43819;-65
2022/08/19 10:38:46;;;;;;;2.30;2.20;;;23.60;66.00;;;;;;5037323;28;44031;-65
2022/08/19 10:41:25;;;;;;;2.10;2.00;;;23.60;66.00;;;;;;5033267;28;43433;-65
2022/08/19 10:43:54;;;;;;;2.20;2.10;;;23.70;66.10;;;;;;5044748;28;43523;-65
2022/08/19 10:46:24;;;;;;;2.53;2.30;;;23.70;65.90;;;;;;5046283;28;43874;-65
2022/08/19 10:48:53;;;;;;;2.50;2.40;;;23.70;65.90;;;;;;5042382;28;43954;-63
2022/08/19 10:56:50;;;;;;;2.20;2.10;;;23.70;65.80;;;;;;5022887;28;43575;-64
2022/08/19 10:57:16;;;;;;;2.70;2.50;;;23.70;65.80;;;;;;5045258;28;44075;-64
2022/08/19 10:59:44;;;;;;;2.60;2.40;;;23.70;66.00;;;;;;5031349;28;43500;-64
2022/08/19 11:02:12;;;;;;;2.08;1.98;;;23.70;65.70;;;;;;5040503;28;43504;-64
2022/08/19 11:04:40;;;;;;;2.75;2.55;;;23.80;65.60;;;;;;5046602;28;43435;-64
2022/08/19 11:07:09;;;;;;;2.50;2.30;;;23.80;65.60;;;;;;5044715;28;44242;-64
2022/08/19 11:09:41;;;;;;;2.17;2.08;;;23.80;65.80;;;;;;5041852;28;43458;-65
2022/08/19 11:12:10;;;;;;;2.50;2.30;;;23.80;65.80;;;;;;5042956;28;43515;-65
2022/08/19 11:14:37;;;;;;;2.63;2.53;;;23.90;66.00;;;;;;5046770;28;43576;-65
2022/08/19 11:17:05;;;;;;;2.58;2.47;;;23.90;65.90;;;;;;5048044;28;44918;-65
2022/08/19 11:19:33;;;;;;;3.08;2.88;;;23.90;65.90;;;;;;5045350;28;43438;-65
2022/08/19 11:22:02;;;;;;;2.70;2.50;;;23.90;66.00;;;;;;5045608;28;43520;-65
2022/08/19 11:24:31;;;;;;;2.80;2.60;;;23.90;66.50;;;;;;5046632;28;43480;-65
2022/08/19 11:27:04;;;;;;;3.10;2.90;;;24.00;65.90;;;;;;5045151;28;44833;-65
2022/08/19 11:29:34;;;;;;;2.70;2.50;;;24.00;66.20;;;;;;5040269;28;43519;-65
2022/08/19 11:32:09;;;;;;;2.50;2.38;;;24.00;66.00;;;;;;5045166;28;43482;-65
2022/08/19 11:34:37;;;;;;;2.60;2.47;;;24.00;65.80;;;;;;5042301;28;43541;-65
2022/08/19 11:37:05;;;;;;;2.40;2.30;;;24.00;65.70;;;;;;5028249;28;44689;-65
2022/08/19 11:39:33;;;;;;;2.95;2.78;;;24.00;65.60;;;;;;5049815;28;43991;-65
2022/08/19 11:42:02;;;;;;;3.10;2.90;;;24.00;65.60;;;;;;5040386;28;43487;-65
2022/08/19 11:44:30;;;;;;;2.90;2.70;;;24.10;65.60;;;;;;5042030;28;43547;-65
2022/08/19 11:47:00;;;;;;;3.42;3.22;;;24.10;65.50;;;;;;5030007;28;43890;-65
2022/08/19 11:49:35;;;;;;;3.10;2.90;;;24.10;65.70;;;;;;5040982;28;43521;-65
2022/08/19 11:52:03;;;;;;;3.22;3.03;;;24.10;65.80;;;;;;5040612;28;43453;-65
2022/08/19 11:54:30;;;;;;;3.03;2.83;;;24.10;66.00;;;;;;5041983;28;43617;-65
2022/08/19 11:56:58;;;;;;;2.90;2.70;;;24.20;66.00;;;;;;5041501;28;43785;-65
2022/08/19 11:59:26;;;;;;;3.03;2.83;;;24.20;65.80;;;;;;5039684;28;43987;-65
2022/08/19 12:01:56;;;;;;;2.97;2.77;;;24.20;65.80;;;;;;5042292;28;43618;-65
2022/08/19 12:04:24;;;;;;;3.40;3.20;;;24.20;65.60;;;;;;5041055;28;43542;-66
2022/08/19 12:06:52;;;;;;;3.15;2.95;;;24.20;65.70;;;;;;5037338;28;44022;-65
2022/08/19 12:09:21;;;;;;;3.10;2.90;;;24.30;65.70;;;;;;5033626;28;43376;-66
2022/08/19 12:11:50;;;;;;;3.20;3.00;;;24.30;65.70;;;;;;5030944;28;43482;-65
2022/08/19 12:14:18;;;;;;;3.38;3.10;;;24.30;65.70;;;;;;5038960;28;43739;-65
2022/08/19 12:16:47;;;;;;;3.00;2.80;;;24.30;65.70;;;;;;5034654;28;44956;-66
2022/08/19 12:19:19;;;;;;;3.08;2.90;;;24.30;65.80;;;;;;5033312;28;43709;-65
2022/08/19 12:21:49;;;;;;;3.33;3.10;;;24.30;65.80;;;;;;5041750;28;43466;-65
2022/08/19 12:24:22;;;;;;;3.22;3.03;;;24.30;65.80;;;;;;5046366;28;43479;-65
2022/08/19 12:26:51;;;;;;;3.25;3.03;;;24.30;65.70;;;;;;5041688;28;43615;-65
2022/08/19 12:29:21;;;;;;;3.40;3.20;;;24.30;65.90;;;;;;5042038;28;43815;-65
2022/08/19 12:31:50;;;;;;;3.25;3.05;;;24.30;65.80;;;;;;5032221;28;43515;-65
2022/08/19 12:34:19;;;;;;;3.42;3.22;;;24.30;65.90;;;;;;5037632;28;43444;-65
2022/08/19 12:36:49;;;;;;;3.20;3.00;;;24.30;66.00;;;;;;5036575;28;43792;-65
2022/08/19 12:39:17;;;;;;;3.25;2.95;;;24.30;66.00;;;;;;5040494;28;43432;-65
2022/08/19 12:41:44;;;;;;;3.10;2.90;;;24.30;65.80;;;;;;5028908;28;43492;-65
2022/08/19 12:44:22;;;;;;;3.17;2.97;;;24.30;65.90;;;;;;5031140;28;43480;-65
2022/08/19 12:46:59;;;;;;;3.33;3.13;;;24.30;66.00;;;;;;5038069;28;43907;-65
2022/08/19 12:49:33;;;;;;;3.80;3.50;;;24.30;66.00;;;;;;5040237;28;44216;-68
2022/08/19 12:52:21;;;;;;;3.70;3.50;;;24.30;65.90;;;;;;5037726;28;43438;-68
2022/08/19 12:54:51;;;;;;;3.22;3.03;;;24.30;66.00;;;;;;5038540;28;43584;-69
2022/08/19 12:57:22;;;;;;;3.63;3.40;;;24.30;65.80;;;;;;5037587;28;43912;-68
2022/08/19 13:00:20;;;;;;;3.75;3.45;;;24.30;65.70;;;;;;5027640;28;44076;-69
2022/08/19 13:02:50;;;;;;;3.40;3.20;;;24.30;65.50;;;;;;5036361;28;43507;-69
2022/08/19 13:05:26;;;;;;;4.07;3.78;;;24.30;65.70;;;;;;5038877;28;43538;-69
2022/08/19 13:07:56;;;;;;;3.75;3.45;;;24.30;65.70;;;;;;5035703;28;44381;-69
2022/08/19 13:10:27;;;;;;;4.47;4.18;;;24.30;65.60;;;;;;5037272;28;43712;-69
2022/08/19 13:12:56;;;;;;;4.13;3.83;;;24.30;65.60;;;;;;5042221;28;43988;-68
2022/08/19 13:15:24;;;;;;;4.00;3.70;;;24.30;65.60;;;;;;5039284;28;43543;-68
2022/08/19 13:17:53;;;;;;;3.80;3.50;;;24.30;65.60;;;;;;5033841;28;44409;-69
2022/08/19 13:20:22;;;;;;;3.95;3.65;;;24.30;65.50;;;;;;5031698;28;43996;-68
2022/08/19 13:22:49;;;;;;;4.80;4.28;;;24.30;65.60;;;;;;5036514;28;43572;-67
2022/08/19 13:25:19;;;;;;;3.85;3.65;;;24.30;65.80;;;;;;5034910;28;43495;-68